Time;durP1;ratioP1;P1;durP2;ratioP2;P2;SDS_P1;SDS_P2;PMS_P1;PMS_P2;Temp;Humidity;BMP_temperature;BMP_pressure;BME280_temperature;BME280_humidity;BME280_pressure;Samples;Min_cycle;Max_cycle;Signal;HPM_P1;HPM_P2
2023/05/25 00:02:36;;;;;;;19.00;13.00;;;;;;;8.26;75.38;100915.08;129986;1257;115131;-62
2023/05/25 00:05:38;;;;;;;25.40;14.60;;;;;;;8.24;75.24;100917.81;130369;1257;114766;-62
2023/05/25 00:08:40;;;;;;;24.00;15.20;;;;;;;8.21;75.48;100917.52;130182;1275;114730;-62
2023/05/25 00:11:43;;;;;;;25.90;14.60;;;;;;;8.20;75.53;100920.59;130312;1269;115275;-62
2023/05/25 00:14:45;;;;;;;26.50;15.30;;;;;;;8.17;75.41;100921.73;130145;1275;114703;-62
2023/05/25 00:17:47;;;;;;;25.00;15.90;;;;;;;8.16;75.58;100923.54;130237;1256;114813;-62
2023/05/25 00:20:53;;;;;;;32.40;15.50;;;;;;;8.15;75.86;100920.03;130306;1255;114724;-62
2023/05/25 00:23:55;;;;;;;19.60;13.30;;;;;;;8.13;76.32;100917.23;129996;1253;115104;-62
2023/05/25 00:26:57;;;;;;;21.30;12.80;;;;;;;8.11;76.32;100918.55;130074;1257;115082;-62
2023/05/25 00:29:59;;;;;;;22.30;12.70;;;;;;;8.09;76.36;100919.84;130132;1275;115117;-62
2023/05/25 00:33:01;;;;;;;22.80;13.10;;;;;;;8.07;76.46;100914.92;130097;1257;114693;-62
2023/05/25 00:36:05;;;;;;;18.70;12.80;;;;;;;8.06;76.57;100913.88;130125;1275;114703;-62
2023/05/25 00:39:06;;;;;;;24.60;12.70;;;;;;;8.03;76.78;100912.52;130082;1275;114719;-63
2023/05/25 00:42:10;;;;;;;20.50;12.20;;;;;;;8.02;76.94;100916.86;130098;1253;115010;-62
2023/05/25 00:45:12;;;;;;;16.00;12.20;;;;;;;8.00;76.74;100920.81;130060;1256;115148;-62
2023/05/25 00:48:14;;;;;;;19.30;12.90;;;;;;;7.99;76.78;100917.28;130030;1275;114762;-62
2023/05/25 00:51:16;;;;;;;20.90;12.70;;;;;;;7.98;76.84;100924.79;130180;1257;115094;-63
2023/05/25 00:54:19;;;;;;;19.90;12.60;;;;;;;7.97;77.16;100929.44;130280;1275;114729;-62
2023/05/25 00:57:22;;;;;;;24.00;14.00;;;;;;;7.97;77.34;100925.52;130022;1275;114796;-62
2023/05/25 01:00:24;;;;;;;18.70;12.70;;;;;;;7.96;77.40;100925.20;130008;1275;114703;-62
2023/05/25 01:03:33;;;;;;;22.70;13.00;;;;;;;7.95;77.32;100926.13;130175;1275;114735;-62
2023/05/25 01:06:37;;;;;;;23.70;13.50;;;;;;;7.93;77.52;100921.90;130053;1275;114741;-62
2023/05/25 01:09:41;;;;;;;11.50;9.10;;;;;;;7.92;77.35;100924.60;130039;1275;114711;-62
2023/05/25 01:12:43;;;;;;;23.30;13.80;;;;;;;7.91;77.38;100925.52;130058;1275;114821;-62
2023/05/25 01:15:46;;;;;;;21.00;14.60;;;;;;;7.90;77.53;100926.25;129911;1275;114716;-63
2023/05/25 01:18:51;;;;;;;23.70;14.80;;;;;;;7.89;77.34;100926.09;130110;1275;114690;-63
2023/05/25 01:22:19;;;;;;;24.90;16.10;;;;;;;7.88;77.85;100926.31;129974;1256;114703;-63
2023/05/25 01:25:24;;;;;;;26.10;15.90;;;;;;;7.86;77.76;100924.94;130189;1269;114792;-63
2023/05/25 01:28:37;;;;;;;32.70;16.70;;;;;;;7.85;77.71;100931.21;130074;1255;114732;-63
2023/05/25 01:31:40;;;;;;;27.00;17.70;;;;;;;7.84;77.89;100931.59;130051;1275;128613;-63
2023/05/25 01:34:43;;;;;;;28.70;18.00;;;;;;;7.82;77.96;100936.60;130013;1272;114849;-63
2023/05/25 01:37:45;;;;;;;26.10;16.00;;;;;;;7.80;77.45;100947.52;130142;1256;114748;-64
2023/05/25 01:40:47;;;;;;;29.50;17.00;;;;;;;7.78;77.90;100953.96;130087;1275;115282;-64
2023/05/25 01:43:51;;;;;;;26.20;16.10;;;;;;;7.76;77.72;100957.39;130494;1275;114691;-63
2023/05/25 01:47:00;;;;;;;25.30;16.20;;;;;;;7.74;77.76;100957.98;129951;1274;114913;-63
2023/05/25 01:50:30;;;;;;;24.70;15.50;;;;;;;7.73;78.11;100958.36;130088;1264;129040;-63
2023/05/25 01:53:39;;;;;;;28.50;15.90;;;;;;;7.72;77.75;100962.30;130016;1275;115145;-63
2023/05/25 01:56:42;;;;;;;25.50;15.50;;;;;;;7.71;78.02;100954.86;130151;1275;114735;-62
2023/05/25 01:59:45;;;;;;;27.80;17.40;;;;;;;7.72;78.26;100953.61;130252;1267;114677;-64
2023/05/25 02:02:49;;;;;;;29.80;17.00;;;;;;;7.73;77.92;100949.30;130172;1253;115145;-65
2023/05/25 02:05:52;;;;;;;27.90;15.80;;;;;;;7.76;78.58;100948.68;130476;1256;129091;-65
2023/05/25 02:08:54;;;;;;;31.50;16.10;;;;;;;7.81;78.66;100948.02;130072;1275;114712;-63
2023/05/25 02:11:56;;;;;;;25.90;16.50;;;;;;;7.84;78.85;100944.55;130286;1253;114731;-64
2023/05/25 02:14:58;;;;;;;23.00;15.80;;;;;;;7.89;78.80;100951.90;130302;1253;114715;-64
2023/05/25 02:18:00;;;;;;;26.30;15.50;;;;;;;7.94;79.07;100955.31;130217;1263;114705;-65
2023/05/25 02:21:02;;;;;;;29.80;17.20;;;;;;;8.00;79.19;100961.72;128464;1253;2560222;-65
2023/05/25 02:24:05;;;;;;;26.40;17.00;;;;;;;8.08;79.29;100962.92;130223;1272;114684;-65
2023/05/25 02:27:07;;;;;;;27.50;15.20;;;;;;;8.15;79.36;100961.83;130314;1258;129033;-61
2023/05/25 02:30:09;;;;;;;25.20;15.40;;;;;;;8.21;79.57;100960.42;129885;1275;114790;-61
2023/05/25 02:33:12;;;;;;;31.00;16.60;;;;;;;8.27;79.68;100960.95;130281;1253;114822;-63
2023/05/25 02:36:14;;;;;;;29.50;17.10;;;;;;;8.33;79.80;100962.36;130171;1271;115288;-64
2023/05/25 02:39:16;;;;;;;25.70;16.30;;;;;;;8.39;79.65;100958.27;130185;1268;115072;-63
2023/05/25 02:42:18;;;;;;;36.00;17.70;;;;;;;8.45;79.46;100956.32;130258;1275;114728;-65
2023/05/25 02:45:20;;;;;;;28.10;15.70;;;;;;;8.51;79.69;100954.23;129812;1275;114817;-63
2023/05/25 02:48:25;;;;;;;32.00;17.20;;;;;;;8.55;79.91;100954.64;130146;1260;114665;-64
2023/05/25 02:51:28;;;;;;;24.30;15.90;;;;;;;8.59;79.68;100958.42;129873;1262;114764;-64
2023/05/25 02:54:30;;;;;;;25.50;16.20;;;;;;;8.64;80.08;100957.91;130088;1271;114799;-64
2023/05/25 02:57:32;;;;;;;24.50;14.90;;;;;;;8.69;79.92;100952.08;130207;1253;114758;-63
2023/05/25 03:00:35;;;;;;;28.80;15.60;;;;;;;8.74;79.67;100943.73;129978;1275;116348;-63
2023/05/25 03:03:37;;;;;;;32.00;16.40;;;;;;;8.78;79.52;100940.92;130123;1275;114699;-63
2023/05/25 03:06:38;;;;;;;25.80;15.80;;;;;;;8.81;79.70;100941.89;130060;1275;115137;-63
2023/05/25 03:09:40;;;;;;;25.00;15.70;;;;;;;8.86;79.53;100943.35;130085;1258;128606;-63
2023/05/25 03:12:42;;;;;;;23.20;15.70;;;;;;;8.89;79.60;100949.48;130040;1257;114775;-63
2023/05/25 03:15:44;;;;;;;27.20;15.20;;;;;;;8.93;79.68;100955.05;130053;1256;114788;-63
2023/05/25 03:18:46;;;;;;;26.00;15.70;;;;;;;8.97;79.66;100959.02;129985;1275;114693;-63
2023/05/25 03:21:49;;;;;;;28.10;15.10;;;;;;;9.01;79.63;100960.53;130027;1275;114701;-63
2023/05/25 03:24:52;;;;;;;23.00;15.00;;;;;;;9.05;79.90;100964.31;130209;1271;115386;-63
2023/05/25 03:27:54;;;;;;;23.50;14.60;;;;;;;9.10;80.09;100967.69;130357;1269;114771;-63
2023/05/25 03:30:56;;;;;;;25.30;15.20;;;;;;;9.15;79.83;100971.98;130283;1275;114702;-63
2023/05/25 03:33:58;;;;;;;19.80;14.40;;;;;;;9.21;79.86;100969.66;130316;1257;115143;-63
2023/05/25 03:37:00;;;;;;;24.80;15.30;;;;;;;9.25;79.76;100962.73;130372;1253;114712;-63
2023/05/25 03:40:03;;;;;;;27.90;15.20;;;;;;;9.31;79.79;100967.70;130142;1275;114779;-64
2023/05/25 03:43:05;;;;;;;23.50;15.60;;;;;;;9.37;79.74;100971.80;130179;1275;114790;-63
2023/05/25 03:46:10;;;;;;;23.40;15.50;;;;;;;9.42;79.65;100971.80;130147;1275;115431;-64
2023/05/25 03:49:12;;;;;;;34.90;17.20;;;;;;;9.47;79.67;100973.41;130151;1257;128529;-63
2023/05/25 03:52:14;;;;;;;32.10;16.50;;;;;;;9.51;79.55;100971.31;130283;1258;114631;-65
2023/05/25 03:55:16;;;;;;;28.10;16.50;;;;;;;9.55;79.53;100972.98;130566;1253;114758;-63
2023/05/25 03:58:18;;;;;;;23.10;14.00;;;;;;;9.57;79.56;100975.23;130062;1275;114719;-65
2023/05/25 04:01:20;;;;;;;21.30;13.70;;;;;;;9.61;79.53;100975.44;130033;1275;114694;-63
2023/05/25 04:04:22;;;;;;;22.80;13.60;;;;;;;9.65;79.44;100981.54;130202;1275;115396;-63
2023/05/25 04:07:28;;;;;;;21.30;13.60;;;;;;;9.70;79.40;100981.36;130234;1259;114685;-63
2023/05/25 04:10:31;;;;;;;18.30;13.50;;;;;;;9.75;79.35;100984.06;129994;1275;128835;-63
2023/05/25 04:13:35;;;;;;;23.10;14.80;;;;;;;9.80;79.53;100984.59;129974;1275;114746;-63
2023/05/25 04:16:41;;;;;;;21.40;15.60;;;;;;;9.87;79.57;100987.02;130088;1256;114742;-63
2023/05/25 04:19:43;;;;;;;26.10;14.40;;;;;;;9.94;79.49;100987.30;130218;1258;116320;-63
2023/05/25 04:22:46;;;;;;;23.60;14.30;;;;;;;10.00;79.45;100989.23;130155;1275;114775;-62
2023/05/25 04:25:50;;;;;;;19.50;14.20;;;;;;;10.07;79.28;100990.80;130049;1256;114706;-63
2023/05/25 04:28:54;;;;;;;24.90;14.90;;;;;;;10.14;79.54;100988.73;130092;1253;115112;-63
2023/05/25 04:31:56;;;;;;;24.60;13.70;;;;;;;10.23;79.50;100987.70;130120;1259;114841;-63
2023/05/25 04:34:59;;;;;;;25.70;14.70;;;;;;;10.30;79.27;100990.47;130015;1257;114700;-63
2023/05/25 04:38:01;;;;;;;20.40;14.40;;;;;;;10.38;79.52;100991.09;130133;1254;114864;-62
2023/05/25 04:41:04;;;;;;;20.80;13.80;;;;;;;10.45;79.19;100996.38;129868;1259;114790;-63
2023/05/25 04:44:06;;;;;;;29.60;15.00;;;;;;;10.52;79.10;100995.58;130166;1259;114770;-63
2023/05/25 04:47:09;;;;;;;23.80;14.10;;;;;;;10.59;78.86;100992.64;130181;1253;114883;-63
2023/05/25 04:50:12;;;;;;;21.90;13.80;;;;;;;10.67;79.13;100995.00;130077;1253;114792;-63
2023/05/25 04:53:14;;;;;;;22.00;14.90;;;;;;;10.75;79.06;100998.80;130149;1259;114725;-64
2023/05/25 04:56:16;;;;;;;25.00;14.80;;;;;;;10.83;79.13;101000.79;130205;1266;114721;-64
2023/05/25 04:59:18;;;;;;;29.10;14.90;;;;;;;10.92;79.06;101001.90;130164;1275;115218;-65
2023/05/25 05:02:23;;;;;;;25.60;14.10;;;;;;;10.96;78.76;100997.27;130273;1275;114665;-64
2023/05/25 05:05:25;;;;;;;20.70;14.40;;;;;;;11.00;78.55;100999.59;130368;1257;114686;-65
2023/05/25 05:08:27;;;;;;;24.20;14.10;;;;;;;11.04;78.37;101001.06;130450;1253;115154;-63
2023/05/25 05:11:29;;;;;;;23.40;13.60;;;;;;;11.08;78.10;101004.10;130063;1256;115122;-63
2023/05/25 05:14:32;;;;;;;21.70;14.10;;;;;;;11.15;78.07;101006.88;129956;1257;114725;-63
2023/05/25 05:17:34;;;;;;;21.80;14.30;;;;;;;11.21;78.52;101006.43;130059;1259;115005;-63
2023/05/25 05:20:36;;;;;;;21.40;13.00;;;;;;;11.27;77.74;101007.11;130128;1253;115688;-63
2023/05/25 05:23:38;;;;;;;23.40;13.00;;;;;;;11.33;77.95;101012.06;129988;1266;129123;-63
2023/05/25 05:26:40;;;;;;;27.00;14.80;;;;;;;11.38;77.64;101014.52;129995;1257;115085;-63
2023/05/25 05:29:43;;;;;;;20.40;12.80;;;;;;;11.46;77.32;101023.69;130074;1256;114764;-63
2023/05/25 05:32:45;;;;;;;27.40;13.50;;;;;;;11.53;77.91;101026.59;130029;1257;114798;-63
2023/05/25 05:35:47;;;;;;;20.30;12.70;;;;;;;11.61;77.79;101024.86;130020;1275;114694;-63
2023/05/25 05:38:49;;;;;;;19.60;12.20;;;;;;;11.66;77.43;101027.86;129927;1272;114645;-63
2023/05/25 05:41:51;;;;;;;23.40;13.70;;;;;;;11.71;77.18;101029.61;130115;1275;114759;-62
2023/05/25 05:44:53;;;;;;;22.10;13.40;;;;;;;11.78;77.46;101028.08;129884;1259;128121;-63
2023/05/25 05:47:55;;;;;;;23.10;11.70;;;;;;;11.84;77.09;101027.45;129945;1257;114852;-64
2023/05/25 05:50:57;;;;;;;19.90;12.30;;;;;;;11.90;77.05;101030.95;130119;1267;114724;-62
2023/05/25 05:53:59;;;;;;;19.30;12.40;;;;;;;11.96;77.13;101024.21;130105;1256;114800;-63
2023/05/25 05:57:02;;;;;;;21.00;13.00;;;;;;;12.04;76.49;101031.45;130103;1257;114897;-63
2023/05/25 06:00:06;;;;;;;23.20;12.70;;;;;;;12.10;76.58;101031.91;130062;1271;115147;-62
2023/05/25 06:03:08;;;;;;;18.00;11.80;;;;;;;12.14;76.47;101040.13;130011;1259;114720;-62
2023/05/25 06:06:10;;;;;;;24.30;14.80;;;;;;;12.19;76.52;101040.46;130022;1257;114701;-62
2023/05/25 06:09:13;;;;;;;21.40;12.10;;;;;;;12.24;76.45;101041.85;129827;1259;114749;-61
2023/05/25 06:12:15;;;;;;;18.60;11.80;;;;;;;12.31;76.63;101038.52;130043;1258;114795;-61
2023/05/25 06:15:17;;;;;;;23.30;12.80;;;;;;;12.39;76.39;101039.04;130177;1259;114867;-62
2023/05/25 06:18:19;;;;;;;25.10;13.00;;;;;;;12.46;76.40;101043.02;130319;1259;114760;-61
2023/05/25 06:21:21;;;;;;;24.30;12.20;;;;;;;12.54;76.16;101042.84;130341;1255;114713;-61
2023/05/25 06:24:23;;;;;;;19.80;12.80;;;;;;;12.60;75.86;101040.58;130002;1253;114785;-62
2023/05/25 06:27:25;;;;;;;23.20;11.90;;;;;;;12.67;75.82;101041.52;130144;1258;114763;-63
2023/05/25 06:30:42;;;;;;;21.30;12.50;;;;;;;12.74;75.83;101043.88;130192;1269;115333;-67
2023/05/25 06:33:46;;;;;;;19.70;11.20;;;;;;;12.84;75.88;101040.56;130654;1258;114698;-63
2023/05/25 06:36:48;;;;;;;27.70;11.60;;;;;;;12.92;75.43;101038.74;130261;1255;115085;-63
2023/05/25 06:39:49;;;;;;;23.00;12.60;;;;;;;12.98;75.25;101033.98;130299;1267;115082;-62
2023/05/25 06:42:51;;;;;;;20.00;11.50;;;;;;;13.05;75.11;101034.18;130251;1274;114722;-62
2023/05/25 06:45:53;;;;;;;18.30;12.50;;;;;;;13.13;74.98;101036.14;130306;1271;115071;-63
2023/05/25 06:48:58;;;;;;;18.80;11.30;;;;;;;13.20;74.94;101035.09;130334;1274;114688;-63
2023/05/25 06:52:00;;;;;;;17.50;10.80;;;;;;;13.29;74.85;101031.98;130185;1256;115195;-63
2023/05/25 06:55:02;;;;;;;15.60;10.80;;;;;;;13.40;74.90;101035.54;130115;1255;114936;-63
2023/05/25 06:58:05;;;;;;;22.00;11.70;;;;;;;13.53;74.72;101034.73;130075;1253;114763;-63
2023/05/25 07:01:07;;;;;;;21.40;10.30;;;;;;;13.65;74.58;101032.33;130086;1255;114716;-63
2023/05/25 07:04:10;;;;;;;19.70;12.10;;;;;;;13.76;74.43;101031.79;130046;1267;114719;-63
2023/05/25 07:07:47;;;;;;;21.10;11.10;;;;;;;13.86;74.16;101032.17;130238;1275;114798;-63
2023/05/25 07:10:50;;;;;;;21.30;10.90;;;;;;;13.98;74.26;101027.44;130206;1256;115217;-63
2023/05/25 07:13:52;;;;;;;18.40;10.50;;;;;;;14.09;74.11;101027.55;130293;1255;114853;-62
2023/05/25 07:16:54;;;;;;;18.20;9.90;;;;;;;14.22;73.80;101026.36;130270;1253;114732;-63
2023/05/25 07:19:56;;;;;;;16.60;10.60;;;;;;;14.33;73.69;101019.48;129953;1254;114787;-63
2023/05/25 07:22:58;;;;;;;15.50;9.90;;;;;;;14.44;73.33;101020.36;130236;1256;115329;-63
2023/05/25 07:26:01;;;;;;;18.80;11.10;;;;;;;14.56;73.19;101022.02;130200;1256;114812;-63
2023/05/25 07:29:03;;;;;;;15.70;9.50;;;;;;;14.70;72.89;101021.84;130112;1275;128783;-62
2023/05/25 07:32:06;;;;;;;20.60;9.60;;;;;;;14.83;72.97;101022.52;130266;1275;114783;-62
2023/05/25 07:35:08;;;;;;;17.40;10.10;;;;;;;15.01;72.75;101027.86;130065;1271;115063;-62
2023/05/25 07:38:10;;;;;;;22.40;10.50;;;;;;;15.18;72.66;101035.36;130165;1253;116224;-63
2023/05/25 07:41:13;;;;;;;23.20;10.60;;;;;;;15.34;72.37;101038.75;130152;1275;114695;-63
2023/05/25 07:44:15;;;;;;;22.30;10.90;;;;;;;15.51;72.23;101038.11;130163;1268;115127;-62
2023/05/25 07:47:17;;;;;;;20.20;10.60;;;;;;;15.72;71.99;101040.66;130123;1259;114743;-62
2023/05/25 07:50:20;;;;;;;21.20;9.80;;;;;;;15.88;71.55;101038.84;130215;1275;114742;-62
2023/05/25 07:53:23;;;;;;;20.10;10.40;;;;;;;16.10;71.54;101038.45;129978;1259;114924;-62
2023/05/25 07:56:25;;;;;;;21.30;11.00;;;;;;;16.28;70.93;101043.52;130179;1253;114696;-62
2023/05/25 07:59:28;;;;;;;18.80;9.90;;;;;;;16.40;70.40;101044.59;130259;1255;115301;-62
2023/05/25 08:02:30;;;;;;;21.10;9.90;;;;;;;16.49;69.94;101048.69;130259;1253;114729;-62
2023/05/25 08:05:33;;;;;;;15.10;10.00;;;;;;;16.58;69.87;101054.45;130118;1256;116592;-62
2023/05/25 08:08:36;;;;;;;18.70;10.30;;;;;;;16.66;69.53;101056.30;130102;1257;114825;-62
2023/05/25 08:11:39;;;;;;;17.30;9.70;;;;;;;16.75;69.36;101057.36;130026;1256;114882;-62
2023/05/25 08:14:41;;;;;;;18.20;10.90;;;;;;;16.84;69.26;101052.45;130101;1253;114745;-62
2023/05/25 08:17:43;;;;;;;17.00;9.70;;;;;;;16.91;68.82;101047.48;130062;1253;114786;-62
2023/05/25 08:20:45;;;;;;;17.40;9.30;;;;;;;16.97;68.41;101051.08;130041;1256;114750;-62
2023/05/25 08:23:49;;;;;;;23.20;9.70;;;;;;;17.06;68.41;101053.43;130131;1252;114756;-62
2023/05/25 08:26:51;;;;;;;19.70;9.80;;;;;;;17.13;67.98;101052.08;130153;1258;114786;-62
2023/05/25 08:29:53;;;;;;;18.80;10.00;;;;;;;17.21;67.69;101050.84;130222;1253;114700;-62
2023/05/25 08:32:56;;;;;;;21.80;10.70;;;;;;;17.23;67.23;101048.72;130328;1254;114754;-62
2023/05/25 08:35:58;;;;;;;17.00;9.80;;;;;;;17.24;67.05;101048.13;130231;1253;115370;-62
2023/05/25 08:39:03;;;;;;;17.80;10.30;;;;;;;17.27;67.03;101050.23;130392;1256;114749;-62
2023/05/25 08:42:06;;;;;;;18.50;10.00;;;;;;;17.38;66.96;101050.27;130011;1254;114813;-63
2023/05/25 08:45:09;;;;;;;18.60;9.40;;;;;;;17.49;66.65;101044.33;130414;1253;114760;-62
2023/05/25 08:48:14;;;;;;;14.90;8.10;;;;;;;17.58;66.51;101042.99;130262;1256;114715;-63
2023/05/25 08:51:16;;;;;;;16.20;8.90;;;;;;;17.71;66.23;101049.86;130266;1254;114712;-62
2023/05/25 08:54:25;;;;;;;16.70;9.20;;;;;;;17.83;65.94;101051.63;130165;1259;115126;-63
2023/05/25 08:57:37;;;;;;;12.30;8.70;;;;;;;17.90;65.59;101053.10;130162;1275;114776;-63
2023/05/25 09:00:43;;;;;;;18.70;8.70;;;;;;;17.99;65.32;101052.88;130205;1275;127793;-63
2023/05/25 09:03:48;;;;;;;28.20;9.10;;;;;;;18.06;65.18;101057.09;130344;1255;115213;-63
2023/05/25 09:06:51;;;;;;;13.10;7.90;;;;;;;18.18;65.00;101057.41;130043;1274;114865;-64
2023/05/25 09:09:54;;;;;;;12.50;8.00;;;;;;;18.29;64.78;101058.77;130380;1255;114718;-63
2023/05/25 09:12:56;;;;;;;13.90;7.40;;;;;;;18.39;64.08;101059.53;130261;1275;114781;-63
2023/05/25 09:15:58;;;;;;;12.10;7.00;;;;;;;18.49;64.23;101058.83;130041;1275;115383;-63
2023/05/25 09:19:01;;;;;;;13.80;8.70;;;;;;;18.66;63.88;101059.79;130237;1267;114715;-63
2023/05/25 09:22:03;;;;;;;19.80;8.40;;;;;;;18.89;64.05;101060.17;130145;1275;116328;-63
2023/05/25 09:25:09;;;;;;;11.10;7.60;;;;;;;19.13;63.61;101064.42;130244;1271;114707;-66
2023/05/25 09:28:13;;;;;;;20.00;7.30;;;;;;;19.33;62.90;101061.12;130107;1259;114684;-64
2023/05/25 09:31:16;;;;;;;12.30;7.50;;;;;;;19.59;62.77;101058.14;130031;1256;114708;-63
2023/05/25 09:34:19;;;;;;;11.70;6.40;;;;;;;19.88;61.98;101050.48;130388;1256;114747;-64
2023/05/25 09:37:21;;;;;;;14.50;6.30;;;;;;;20.19;62.06;101047.58;130224;1274;114789;-63
2023/05/25 09:40:25;;;;;;;14.00;6.20;;;;;;;20.59;61.43;101046.98;130220;1254;114780;-63
2023/05/25 09:43:27;;;;;;;12.90;7.30;;;;;;;20.85;60.55;101042.38;130087;1256;114744;-63
2023/05/25 09:46:31;;;;;;;14.50;6.00;;;;;;;21.11;60.17;101049.00;130076;1269;115072;-63
2023/05/25 09:49:34;;;;;;;10.40;6.50;;;;;;;21.45;60.05;101048.37;130156;1269;114704;-63
2023/05/25 09:52:36;;;;;;;7.20;5.50;;;;;;;21.77;59.22;101042.69;130100;1259;114761;-63
2023/05/25 09:55:38;;;;;;;7.50;5.60;;;;;;;22.08;58.10;101042.91;130081;1267;114859;-63
2023/05/25 09:58:41;;;;;;;12.90;5.80;;;;;;;22.28;57.31;101037.41;130110;1268;114715;-64
2023/05/25 10:01:43;;;;;;;9.80;5.80;;;;;;;22.43;57.20;101034.04;129918;1258;114955;-63
2023/05/25 10:04:46;;;;;;;12.20;5.60;;;;;;;22.61;56.99;101038.67;130286;1274;114725;-64
2023/05/25 10:07:49;;;;;;;6.80;5.60;;;;;;;22.70;56.04;101041.91;130366;1272;114641;-63
2023/05/25 10:10:51;;;;;;;14.10;6.60;;;;;;;22.73;55.69;101041.85;130351;1256;115430;-63
2023/05/25 10:13:55;;;;;;;12.10;5.20;;;;;;;22.72;55.46;101040.85;130183;1265;114766;-63
2023/05/25 10:16:58;;;;;;;11.40;6.20;;;;;;;22.70;54.84;101038.80;130287;1274;114764;-63
2023/05/25 10:20:04;;;;;;;10.80;7.00;;;;;;;22.70;54.63;101043.42;130208;1254;114696;-63
2023/05/25 10:23:11;;;;;;;7.80;6.00;;;;;;;22.68;53.82;101045.55;130061;1258;114845;-63
2023/05/25 10:26:18;;;;;;;10.20;6.40;;;;;;;22.69;53.91;101043.25;129953;1267;114874;-64
2023/05/25 10:29:21;;;;;;;8.90;6.00;;;;;;;22.77;53.86;101045.52;129938;1275;127846;-63
2023/05/25 10:32:23;;;;;;;8.30;5.70;;;;;;;22.83;53.62;101040.41;130049;1275;115183;-64
2023/05/25 10:35:25;;;;;;;11.70;6.00;;;;;;;22.89;53.22;101040.96;130267;1275;114731;-63
2023/05/25 10:38:30;;;;;;;7.20;5.60;;;;;;;22.99;53.27;101044.94;130263;1258;115408;-63
2023/05/25 10:41:32;;;;;;;9.30;5.70;;;;;;;23.05;52.50;101038.59;130076;1274;114713;-63
2023/05/25 10:44:34;;;;;;;9.30;6.00;;;;;;;23.05;51.86;101036.27;130086;1275;115415;-63
2023/05/25 10:47:40;;;;;;;9.70;6.40;;;;;;;23.09;51.99;101039.90;130151;1275;115023;-63
2023/05/25 10:50:48;;;;;;;7.70;5.40;;;;;;;23.12;51.45;101031.56;130071;1256;128697;-63
2023/05/25 10:54:13;;;;;;;9.60;6.00;;;;;;;23.13;51.24;101033.30;129997;1275;114712;-63
2023/05/25 10:57:20;;;;;;;13.00;6.10;;;;;;;23.16;51.13;101027.94;130033;1268;114790;-63
2023/05/25 11:00:22;;;;;;;8.70;5.90;;;;;;;23.21;51.25;101024.95;130119;1275;114782;-63
2023/05/25 11:03:42;;;;;;;7.60;5.50;;;;;;;23.29;51.01;101022.08;130101;1275;115106;-64
2023/05/25 11:06:47;;;;;;;11.80;6.70;;;;;;;23.36;50.59;101022.34;129789;1275;128717;-64
2023/05/25 11:09:57;;;;;;;9.40;5.80;;;;;;;23.33;50.57;101025.37;130079;1265;117142;-63
2023/05/25 11:13:20;;;;;;;12.00;6.50;;;;;;;23.34;50.63;101021.59;130237;1267;115065;-63
2023/05/25 11:17:13;;;;;;;9.70;6.30;;;;;;;23.30;50.15;101016.51;130145;1258;116533;-63
2023/05/25 11:20:22;;;;;;;8.80;5.30;;;;;;;23.19;50.22;101015.62;130312;1274;114672;-63
2023/05/25 11:23:24;;;;;;;10.40;5.80;;;;;;;23.17;50.41;101008.50;130282;1256;128633;-65
2023/05/25 11:26:31;;;;;;;8.00;5.80;;;;;;;23.20;50.14;101007.88;130153;1275;115194;-64
2023/05/25 11:29:36;;;;;;;9.40;5.50;;;;;;;23.17;49.48;101004.54;130257;1275;114690;-64
2023/05/25 11:32:45;;;;;;;;;;;;;;;23.15;49.65;101002.71;130192;1266;114704;-64
2023/05/25 11:35:48;;;;;;;8.80;5.00;;;;;;;23.14;49.51;101005.36;130156;1275;114719;-64
2023/05/25 11:38:54;;;;;;;11.40;4.90;;;;;;;23.14;49.18;101009.02;129966;1256;128130;-64
2023/05/25 11:42:02;;;;;;;11.60;4.90;;;;;;;22.98;49.04;101004.86;130306;1256;115335;-64
2023/05/25 11:45:06;;;;;;;6.10;4.90;;;;;;;22.94;49.28;101003.18;130313;1275;114793;-63
2023/05/25 11:48:12;;;;;;;6.50;4.30;;;;;;;22.95;49.31;101004.34;130230;1275;114750;-64
2023/05/25 11:51:15;;;;;;;8.90;5.80;;;;;;;23.00;49.58;101004.78;129999;1275;114857;-63
2023/05/25 11:54:27;;;;;;;7.00;5.10;;;;;;;22.95;49.03;101003.23;130071;1254;114747;-64
2023/05/25 11:57:29;;;;;;;7.50;5.00;;;;;;;22.74;48.57;101003.73;130152;1257;115221;-63
2023/05/25 12:00:32;;;;;;;10.20;5.30;;;;;;;22.55;48.85;101000.47;130075;1257;115275;-63
2023/05/25 12:03:34;;;;;;;10.20;5.30;;;;;;;22.49;48.94;100995.73;130061;1275;115148;-63
2023/05/25 12:06:37;;;;;;;7.40;4.90;;;;;;;22.47;49.28;100993.13;130080;1272;114770;-63
2023/05/25 12:09:40;;;;;;;7.30;4.70;;;;;;;22.53;49.48;100990.43;130099;1258;115637;-63
2023/05/25 12:12:50;;;;;;;8.20;4.80;;;;;;;22.62;49.78;100987.41;129986;1268;128095;-64
2023/05/25 12:15:56;;;;;;;7.20;4.80;;;;;;;22.78;49.50;100990.05;130121;1253;115370;-63
2023/05/25 12:18:58;;;;;;;8.20;5.10;;;;;;;22.81;48.89;100987.05;130217;1263;114701;-64
2023/05/25 12:22:01;;;;;;;9.70;5.70;;;;;;;22.83;49.05;100989.57;130054;1275;114808;-63
2023/05/25 12:25:05;;;;;;;6.50;5.20;;;;;;;22.89;48.80;100987.79;130134;1274;114780;-63
2023/05/25 12:28:12;;;;;;;7.40;4.80;;;;;;;22.96;48.60;100984.65;130149;1257;115370;-63
2023/05/25 12:31:22;;;;;;;8.90;4.60;;;;;;;23.02;48.71;100983.48;129962;1265;115145;-63
2023/05/25 12:34:26;;;;;;;10.20;5.50;;;;;;;23.13;48.82;100982.16;130060;1257;114786;-64
2023/05/25 12:37:28;;;;;;;;;;;;;;;23.18;48.68;100981.66;130333;1260;114731;-64
2023/05/25 12:40:31;;;;;;;8.90;4.90;;;;;;;23.16;48.83;100978.55;130087;1265;114778;-63
2023/05/25 12:43:41;;;;;;;9.30;4.90;;;;;;;23.19;48.58;100978.86;130126;1275;114800;-63
2023/05/25 12:46:43;;;;;;;9.20;4.80;;;;;;;23.19;48.13;100975.54;130038;1265;116462;-62
2023/05/25 12:49:50;;;;;;;6.70;4.50;;;;;;;23.19;48.39;100970.32;129956;1257;114763;-62
2023/05/25 12:53:00;;;;;;;7.00;4.90;;;;;;;23.22;48.26;100971.65;129992;1274;114843;-62
2023/05/25 12:56:02;;;;;;;11.50;4.90;;;;;;;23.21;48.13;100966.98;130143;1257;114716;-62
2023/05/25 12:59:14;;;;;;;7.70;4.40;;;;;;;23.24;47.79;100966.08;130218;1274;114764;-63
2023/05/25 13:02:16;;;;;;;7.50;4.20;;;;;;;23.24;47.87;100959.29;130250;1274;115172;-62
2023/05/25 13:05:19;;;;;;;10.10;4.60;;;;;;;23.17;47.52;100952.78;130074;1257;115148;-62
2023/05/25 13:08:21;;;;;;;10.00;5.20;;;;;;;22.94;47.44;100953.77;130170;1257;114763;-61
2023/05/25 13:11:24;;;;;;;6.90;4.50;;;;;;;22.74;47.68;100952.35;130238;1264;114789;-61
2023/05/25 13:14:27;;;;;;;9.00;5.30;;;;;;;22.67;48.10;100943.88;130079;1275;114626;-61
2023/05/25 13:17:29;;;;;;;7.80;4.50;;;;;;;22.72;48.48;100946.70;130162;1275;114721;-61
2023/05/25 13:20:32;;;;;;;7.80;4.90;;;;;;;22.85;48.35;100949.93;130116;1274;115331;-61
2023/05/25 13:23:35;;;;;;;9.00;4.70;;;;;;;22.89;48.12;100948.80;130379;1257;114702;-61
2023/05/25 13:26:38;;;;;;;9.20;5.10;;;;;;;22.92;48.13;100945.42;130312;1274;114703;-61
2023/05/25 13:29:44;;;;;;;13.40;5.30;;;;;;;22.91;48.01;100946.76;130201;1274;114732;-61
2023/05/25 13:32:47;;;;;;;8.50;4.60;;;;;;;22.81;47.90;100941.66;130287;1275;128736;-61
2023/05/25 13:35:57;;;;;;;11.60;5.20;;;;;;;22.70;47.98;100942.85;130066;1275;114751;-61
2023/05/25 13:39:00;;;;;;;7.20;4.80;;;;;;;22.54;47.82;100938.47;130127;1266;115125;-61
2023/05/25 13:42:02;;;;;;;8.40;4.60;;;;;;;22.45;48.18;100937.95;130107;1274;114792;-61
2023/05/25 13:45:05;;;;;;;11.90;4.80;;;;;;;22.44;48.14;100933.20;130271;1270;114711;-61
2023/05/25 13:48:08;;;;;;;9.00;4.80;;;;;;;22.46;48.27;100928.79;130334;1274;114748;-61